sensor_id;sensor_type;location;lat;lon;timestamp;pressure;altitude;pressure_sealevel;temperature;humidity
10202;BME280;5143;42.584;23.164;2023-07-28T00:00:23;92715.34;;;10.52;100.00
10202;BME280;5143;42.584;23.164;2023-07-28T00:02:49;92707.16;;;10.52;100.00
10202;BME280;5143;42.584;23.164;2023-07-28T00:05:18;92704.50;;;10.58;100.00
10202;BME280;5143;42.584;23.164;2023-07-28T00:07:44;92705.06;;;10.62;100.00
10202;BME280;5143;42.584;23.164;2023-07-28T00:10:11;92695.09;;;10.59;100.00
10202;BME280;5143;42.584;23.164;2023-07-28T00:12:38;92701.78;;;10.58;100.00
10202;BME280;5143;42.584;23.164;2023-07-28T00:15:05;92697.50;;;10.51;100.00
10202;BME280;5143;42.584;23.164;2023-07-28T00:17:32;92695.22;;;10.50;100.00
10202;BME280;5143;42.584;23.164;2023-07-28T00:19:59;92708.41;;;10.51;100.00
10202;BME280;5143;42.584;23.164;2023-07-28T00:22:27;92700.22;;;10.51;100.00
10202;BME280;5143;42.584;23.164;2023-07-28T00:24:54;92695.66;;;10.43;100.00
10202;BME280;5143;42.584;23.164;2023-07-28T00:27:20;92705.81;;;10.42;100.00
10202;BME280;5143;42.584;23.164;2023-07-28T00:29:47;92698.59;;;10.39;100.00
10202;BME280;5143;42.584;23.164;2023-07-28T00:32:14;92696.59;;;10.40;100.00
10202;BME280;5143;42.584;23.164;2023-07-28T00:34:41;92698.06;;;10.35;100.00
10202;BME280;5143;42.584;23.164;2023-07-28T00:37:07;92687.59;;;10.34;100.00
10202;BME280;5143;42.584;23.164;2023-07-28T00:39:35;92694.00;;;10.31;100.00
10202;BME280;5143;42.584;23.164;2023-07-28T00:42:02;92689.72;;;10.24;100.00
10202;BME280;5143;42.584;23.164;2023-07-28T00:44:29;92680.66;;;10.13;100.00
10202;BME280;5143;42.584;23.164;2023-07-28T00:46:56;92692.31;;;10.13;100.00
10202;BME280;5143;42.584;23.164;2023-07-28T00:49:23;92690.31;;;10.14;100.00
10202;BME280;5143;42.584;23.164;2023-07-28T00:51:51;92694.28;;;10.13;100.00
10202;BME280;5143;42.584;23.164;2023-07-28T00:54:19;92693.69;;;10.08;100.00
10202;BME280;5143;42.584;23.164;2023-07-28T00:56:47;92698.69;;;10.10;100.00
10202;BME280;5143;42.584;23.164;2023-07-28T00:59:14;92697.38;;;10.05;100.00
10202;BME280;5143;42.584;23.164;2023-07-28T01:01:41;92673.00;;;9.82;100.00
10202;BME280;5143;42.584;23.164;2023-07-28T01:04:08;92693.16;;;10.04;100.00
10202;BME280;5143;42.584;23.164;2023-07-28T01:06:40;92700.50;;;9.98;100.00
10202;BME280;5143;42.584;23.164;2023-07-28T01:09:16;92701.94;;;9.94;100.00
10202;BME280;5143;42.584;23.164;2023-07-28T01:11:54;92692.84;;;9.82;100.00
10202;BME280;5143;42.584;23.164;2023-07-28T01:14:21;92698.03;;;9.80;100.00
10202;BME280;5143;42.584;23.164;2023-07-28T01:16:48;92695.78;;;9.64;100.00
10202;BME280;5143;42.584;23.164;2023-07-28T01:19:16;92694.41;;;9.69;100.00
10202;BME280;5143;42.584;23.164;2023-07-28T01:21:45;92691.75;;;9.74;100.00
10202;BME280;5143;42.584;23.164;2023-07-28T01:24:16;92691.41;;;9.67;100.00
10202;BME280;5143;42.584;23.164;2023-07-28T01:26:48;92688.38;;;9.65;100.00
10202;BME280;5143;42.584;23.164;2023-07-28T01:29:16;92693.06;;;9.64;100.00
10202;BME280;5143;42.584;23.164;2023-07-28T01:31:46;92690.25;;;9.59;100.00
10202;BME280;5143;42.584;23.164;2023-07-28T01:34:13;92684.34;;;9.60;100.00
10202;BME280;5143;42.584;23.164;2023-07-28T01:36:40;92697.03;;;9.63;100.00
10202;BME280;5143;42.584;23.164;2023-07-28T01:39:06;92684.88;;;9.64;100.00
10202;BME280;5143;42.584;23.164;2023-07-28T01:41:33;92688.09;;;9.63;100.00
10202;BME280;5143;42.584;23.164;2023-07-28T01:44:01;92684.63;;;9.62;100.00
10202;BME280;5143;42.584;23.164;2023-07-28T01:46:28;92672.69;;;9.60;100.00
10202;BME280;5143;42.584;23.164;2023-07-28T01:48:54;92657.19;;;9.51;100.00
10202;BME280;5143;42.584;23.164;2023-07-28T01:51:21;92675.22;;;9.63;100.00
10202;BME280;5143;42.584;23.164;2023-07-28T01:53:48;92678.22;;;9.65;100.00
10202;BME280;5143;42.584;23.164;2023-07-28T01:56:14;92683.41;;;9.63;100.00
10202;BME280;5143;42.584;23.164;2023-07-28T01:58:41;92677.47;;;9.65;100.00
10202;BME280;5143;42.584;23.164;2023-07-28T02:01:09;92676.84;;;9.55;100.00
10202;BME280;5143;42.584;23.164;2023-07-28T02:03:38;92684.25;;;9.55;100.00
10202;BME280;5143;42.584;23.164;2023-07-28T02:06:05;92682.03;;;9.53;100.00
10202;BME280;5143;42.584;23.164;2023-07-28T02:08:32;92679.56;;;9.55;100.00
10202;BME280;5143;42.584;23.164;2023-07-28T02:10:58;92672.59;;;9.54;100.00
10202;BME280;5143;42.584;23.164;2023-07-28T02:13:25;92683.31;;;9.58;100.00
10202;BME280;5143;42.584;23.164;2023-07-28T02:15:52;92683.78;;;9.56;100.00
10202;BME280;5143;42.584;23.164;2023-07-28T02:18:20;92686.81;;;9.58;100.00
10202;BME280;5143;42.584;23.164;2023-07-28T02:20:47;92684.44;;;9.51;100.00
10202;BME280;5143;42.584;23.164;2023-07-28T02:23:15;92678.47;;;9.47;100.00
10202;BME280;5143;42.584;23.164;2023-07-28T02:25:41;92676.94;;;9.46;100.00
10202;BME280;5143;42.584;23.164;2023-07-28T02:28:10;92673.69;;;9.42;100.00
10202;BME280;5143;42.584;23.164;2023-07-28T02:30:37;92676.09;;;9.40;100.00
10202;BME280;5143;42.584;23.164;2023-07-28T02:33:04;92687.50;;;9.38;100.00
10202;BME280;5143;42.584;23.164;2023-07-28T02:35:32;92686.72;;;9.38;100.00
10202;BME280;5143;42.584;23.164;2023-07-28T02:37:58;92691.81;;;9.30;100.00
10202;BME280;5143;42.584;23.164;2023-07-28T02:40:25;92692.28;;;9.29;100.00
10202;BME280;5143;42.584;23.164;2023-07-28T02:42:52;92688.06;;;9.28;100.00
10202;BME280;5143;42.584;23.164;2023-07-28T02:45:19;92688.06;;;9.28;100.00
10202;BME280;5143;42.584;23.164;2023-07-28T02:47:45;92681.38;;;9.29;100.00
10202;BME280;5143;42.584;23.164;2023-07-28T02:50:12;92692.09;;;9.32;100.00
10202;BME280;5143;42.584;23.164;2023-07-28T02:52:40;92675.38;;;9.25;100.00
10202;BME280;5143;42.584;23.164;2023-07-28T02:55:08;92687.13;;;9.31;100.00
10202;BME280;5143;42.584;23.164;2023-07-28T02:57:34;92688.63;;;9.32;100.00
10202;BME280;5143;42.584;23.164;2023-07-28T03:00:01;92671.16;;;9.24;100.00
10202;BME280;5143;42.584;23.164;2023-07-28T03:02:31;92693.78;;;9.15;100.00
10202;BME280;5143;42.584;23.164;2023-07-28T03:04:58;92686.00;;;9.23;100.00
10202;BME280;5143;42.584;23.164;2023-07-28T03:07:24;92690.69;;;9.22;100.00
10202;BME280;5143;42.584;23.164;2023-07-28T03:09:52;92698.28;;;9.18;100.00
10202;BME280;5143;42.584;23.164;2023-07-28T03:12:19;92699.13;;;9.10;100.00
10202;BME280;5143;42.584;23.164;2023-07-28T03:14:46;92695.38;;;9.07;100.00
10202;BME280;5143;42.584;23.164;2023-07-28T03:17:13;92689.41;;;9.03;100.00
10202;BME280;5143;42.584;23.164;2023-07-28T03:19:40;92697.94;;;9.11;100.00
10202;BME280;5143;42.584;23.164;2023-07-28T03:22:06;92694.72;;;9.12;100.00
10202;BME280;5143;42.584;23.164;2023-07-28T03:24:33;92697.84;;;9.05;100.00
10202;BME280;5143;42.584;23.164;2023-07-28T03:27:01;92695.19;;;8.96;100.00
10202;BME280;5143;42.584;23.164;2023-07-28T03:29:28;92697.84;;;9.05;100.00
10202;BME280;5143;42.584;23.164;2023-07-28T03:31:54;92703.84;;;9.09;100.00
10202;BME280;5143;42.584;23.164;2023-07-28T03:34:21;92706.66;;;9.00;100.00
10202;BME280;5143;42.584;23.164;2023-07-28T03:36:48;92715.19;;;9.08;100.00
10202;BME280;5143;42.584;23.164;2023-07-28T03:39:15;92722.06;;;9.18;100.00
10202;BME280;5143;42.584;23.164;2023-07-28T03:41:42;92718.88;;;9.05;100.00
10202;BME280;5143;42.584;23.164;2023-07-28T03:44:10;92715.19;;;9.08;100.00
10202;BME280;5143;42.584;23.164;2023-07-28T03:46:37;92717.00;;;9.11;100.00
10202;BME280;5143;42.584;23.164;2023-07-28T03:49:04;92711.38;;;9.14;100.00
10202;BME280;5143;42.584;23.164;2023-07-28T03:51:30;92713.59;;;9.16;100.00
10202;BME280;5143;42.584;23.164;2023-07-28T03:53:57;92721.13;;;9.21;100.00
10202;BME280;5143;42.584;23.164;2023-07-28T03:56:24;92726.28;;;9.19;100.00
10202;BME280;5143;42.584;23.164;2023-07-28T03:58:50;92723.56;;;9.19;100.00
10202;BME280;5143;42.584;23.164;2023-07-28T04:01:20;92729.09;;;9.24;100.00
10202;BME280;5143;42.584;23.164;2023-07-28T04:03:47;92711.72;;;9.22;100.00
10202;BME280;5143;42.584;23.164;2023-07-28T04:06:14;92716.22;;;9.39;100.00
10202;BME280;5143;42.584;23.164;2023-07-28T04:08:41;92709.66;;;9.46;100.00
10202;BME280;5143;42.584;23.164;2023-07-28T04:11:08;92727.88;;;9.55;100.00
10202;BME280;5143;42.584;23.164;2023-07-28T04:13:35;92717.72;;;9.55;100.00
10202;BME280;5143;42.584;23.164;2023-07-28T04:16:02;92723.28;;;9.46;100.00
10202;BME280;5143;42.584;23.164;2023-07-28T04:18:30;92714.88;;;9.64;100.00
10202;BME280;5143;42.584;23.164;2023-07-28T04:20:57;92728.03;;;9.66;100.00
10202;BME280;5143;42.584;23.164;2023-07-28T04:23:24;92726.94;;;9.58;100.00
10202;BME280;5143;42.584;23.164;2023-07-28T04:25:51;92732.81;;;9.71;100.00
10202;BME280;5143;42.584;23.164;2023-07-28T04:28:17;92724.66;;;9.71;100.00
10202;BME280;5143;42.584;23.164;2023-07-28T04:30:45;92725.00;;;9.78;100.00
10202;BME280;5143;42.584;23.164;2023-07-28T04:33:11;92735.31;;;9.89;100.00
10202;BME280;5143;42.584;23.164;2023-07-28T04:35:39;92740.75;;;10.03;100.00
10202;BME280;5143;42.584;23.164;2023-07-28T04:38:06;92733.09;;;10.22;100.00
10202;BME280;5143;42.584;23.164;2023-07-28T04:40:33;92738.84;;;11.93;100.00
10202;BME280;5143;42.584;23.164;2023-07-28T04:43:00;92746.00;;;14.51;100.00
10202;BME280;5143;42.584;23.164;2023-07-28T04:45:27;92758.50;;;16.86;100.00
10202;BME280;5143;42.584;23.164;2023-07-28T04:47:54;92762.94;;;19.49;76.99
10202;BME280;5143;42.584;23.164;2023-07-28T04:50:20;92765.31;;;21.95;64.00
10202;BME280;5143;42.584;23.164;2023-07-28T04:52:48;92772.63;;;23.57;56.72
10202;BME280;5143;42.584;23.164;2023-07-28T04:55:15;92776.06;;;24.59;52.60
10202;BME280;5143;42.584;23.164;2023-07-28T04:57:44;92775.22;;;25.65;47.88
10202;BME280;5143;42.584;23.164;2023-07-28T05:00:12;92776.44;;;26.60;44.63
10202;BME280;5143;42.584;23.164;2023-07-28T05:02:39;92773.84;;;26.98;41.99
10202;BME280;5143;42.584;23.164;2023-07-28T05:05:06;92779.97;;;28.17;39.12
10202;BME280;5143;42.584;23.164;2023-07-28T05:07:33;92784.16;;;28.85;37.38
10202;BME280;5143;42.584;23.164;2023-07-28T05:10:01;92793.94;;;29.98;36.07
10202;BME280;5143;42.584;23.164;2023-07-28T05:12:28;92803.66;;;30.06;35.58
10202;BME280;5143;42.584;23.164;2023-07-28T05:14:55;92796.75;;;29.76;35.05
10202;BME280;5143;42.584;23.164;2023-07-28T05:17:22;92792.97;;;29.01;35.79
10202;BME280;5143;42.584;23.164;2023-07-28T05:19:49;92786.44;;;29.08;35.68
10202;BME280;5143;42.584;23.164;2023-07-28T05:22:16;92785.66;;;28.77;35.96
10202;BME280;5143;42.584;23.164;2023-07-28T05:24:43;92795.84;;;30.05;34.48
10202;BME280;5143;42.584;23.164;2023-07-28T05:27:11;92787.34;;;29.41;34.23
10202;BME280;5143;42.584;23.164;2023-07-28T05:29:38;92783.38;;;29.35;34.32
10202;BME280;5143;42.584;23.164;2023-07-28T05:32:06;92794.44;;;29.42;33.55
10202;BME280;5143;42.584;23.164;2023-07-28T05:34:33;92790.59;;;29.90;33.01
10202;BME280;5143;42.584;23.164;2023-07-28T05:36:59;92788.31;;;30.19;33.32
10202;BME280;5143;42.584;23.164;2023-07-28T05:39:26;92792.97;;;30.91;32.88
10202;BME280;5143;42.584;23.164;2023-07-28T05:41:53;92787.72;;;31.21;32.14
10202;BME280;5143;42.584;23.164;2023-07-28T05:44:21;92776.63;;;30.78;32.59
10202;BME280;5143;42.584;23.164;2023-07-28T05:46:47;92785.81;;;30.67;32.86
10202;BME280;5143;42.584;23.164;2023-07-28T05:49:14;92781.75;;;31.61;32.07
10202;BME280;5143;42.584;23.164;2023-07-28T05:51:41;92767.66;;;32.09;31.37
10202;BME280;5143;42.584;23.164;2023-07-28T05:54:07;92767.38;;;31.45;31.81
10202;BME280;5143;42.584;23.164;2023-07-28T05:56:34;92769.88;;;30.72;33.51
10202;BME280;5143;42.584;23.164;2023-07-28T05:59:01;92773.88;;;31.13;31.80
10202;BME280;5143;42.584;23.164;2023-07-28T06:01:29;92770.56;;;32.23;31.08
10202;BME280;5143;42.584;23.164;2023-07-28T06:03:57;92767.03;;;31.39;31.65
10202;BME280;5143;42.584;23.164;2023-07-28T06:06:24;92768.19;;;32.68;30.02
10202;BME280;5143;42.584;23.164;2023-07-28T06:08:51;92764.06;;;31.37;31.30
10202;BME280;5143;42.584;23.164;2023-07-28T06:11:18;92760.88;;;30.52;31.99
10202;BME280;5143;42.584;23.164;2023-07-28T06:13:45;92766.38;;;32.24;30.46
10202;BME280;5143;42.584;23.164;2023-07-28T06:16:12;92773.81;;;33.46;29.40
10202;BME280;5143;42.584;23.164;2023-07-28T06:18:40;92770.44;;;33.36;30.13
10202;BME280;5143;42.584;23.164;2023-07-28T06:21:07;92768.16;;;32.43;30.09
10202;BME280;5143;42.584;23.164;2023-07-28T06:23:33;92754.16;;;32.70;30.27
10202;BME280;5143;42.584;23.164;2023-07-28T06:26:00;92770.19;;;33.57;29.57
10202;BME280;5143;42.584;23.164;2023-07-28T06:28:27;92767.41;;;33.32;30.42
10202;BME280;5143;42.584;23.164;2023-07-28T06:30:54;92763.44;;;32.59;31.32
10202;BME280;5143;42.584;23.164;2023-07-28T06:33:21;92774.03;;;33.77;29.85
10202;BME280;5143;42.584;23.164;2023-07-28T06:35:49;92757.69;;;31.72;31.46
10202;BME280;5143;42.584;23.164;2023-07-28T06:38:17;92762.13;;;31.28;31.95
10202;BME280;5143;42.584;23.164;2023-07-28T06:40:45;92766.06;;;32.06;31.59
10202;BME280;5143;42.584;23.164;2023-07-28T06:43:12;92770.88;;;31.92;31.59
10202;BME280;5143;42.584;23.164;2023-07-28T06:45:39;92761.25;;;32.46;31.44
10202;BME280;5143;42.584;23.164;2023-07-28T06:48:05;92763.13;;;32.41;30.57
10202;BME280;5143;42.584;23.164;2023-07-28T06:50:32;92757.94;;;31.41;32.62
10202;BME280;5143;42.584;23.164;2023-07-28T06:53:00;92767.78;;;33.12;30.22
10202;BME280;5143;42.584;23.164;2023-07-28T06:55:27;92775.16;;;33.31;29.64
10202;BME280;5143;42.584;23.164;2023-07-28T06:57:54;92779.56;;;34.16;28.54
10202;BME280;5143;42.584;23.164;2023-07-28T07:00:20;92778.78;;;33.59;29.44
10202;BME280;5143;42.584;23.164;2023-07-28T07:02:48;92773.44;;;33.65;29.36
10202;BME280;5143;42.584;23.164;2023-07-28T07:05:15;92773.47;;;34.21;28.88
10202;BME280;5143;42.584;23.164;2023-07-28T07:07:42;92780.56;;;34.79;27.13
10202;BME280;5143;42.584;23.164;2023-07-28T07:10:12;92777.69;;;33.93;26.90
10202;BME280;5143;42.584;23.164;2023-07-28T07:12:39;92778.75;;;33.45;27.39
10202;BME280;5143;42.584;23.164;2023-07-28T07:15:07;92777.22;;;34.26;27.11
10202;BME280;5143;42.584;23.164;2023-07-28T07:17:33;92774.63;;;34.30;26.61
10202;BME280;5143;42.584;23.164;2023-07-28T07:20:00;92782.31;;;33.46;26.26
10202;BME280;5143;42.584;23.164;2023-07-28T07:22:27;92759.34;;;32.87;26.00
10202;BME280;5143;42.584;23.164;2023-07-28T07:24:55;92783.34;;;33.39;24.83
10202;BME280;5143;42.584;23.164;2023-07-28T07:27:25;92777.31;;;33.19;24.58
10202;BME280;5143;42.584;23.164;2023-07-28T07:29:51;92774.44;;;31.81;26.35
10202;BME280;5143;42.584;23.164;2023-07-28T07:32:18;92771.22;;;32.47;25.52
10202;BME280;5143;42.584;23.164;2023-07-28T07:34:45;92781.56;;;32.67;25.84
10202;BME280;5143;42.584;23.164;2023-07-28T07:37:11;92789.63;;;32.48;25.80
10202;BME280;5143;42.584;23.164;2023-07-28T07:39:38;92794.50;;;32.59;25.70
10202;BME280;5143;42.584;23.164;2023-07-28T07:42:06;92785.09;;;32.06;25.88
10202;BME280;5143;42.584;23.164;2023-07-28T07:44:35;92789.50;;;33.21;24.65
10202;BME280;5143;42.584;23.164;2023-07-28T07:47:11;92786.22;;;33.13;25.92
10202;BME280;5143;42.584;23.164;2023-07-28T07:49:38;92791.81;;;33.39;24.68
10202;BME280;5143;42.584;23.164;2023-07-28T07:52:06;92788.72;;;32.68;25.08
10202;BME280;5143;42.584;23.164;2023-07-28T07:54:33;92791.69;;;32.84;24.55
10202;BME280;5143;42.584;23.164;2023-07-28T07:57:00;92791.09;;;32.49;26.05
10202;BME280;5143;42.584;23.164;2023-07-28T07:59:27;92788.22;;;33.11;24.25
10202;BME280;5143;42.584;23.164;2023-07-28T08:01:59;92800.06;;;32.82;25.81
10202;BME280;5143;42.584;23.164;2023-07-28T08:04:28;92793.34;;;31.90;25.39
10202;BME280;5143;42.584;23.164;2023-07-28T08:06:55;92784.28;;;31.92;26.70
10202;BME280;5143;42.584;23.164;2023-07-28T08:09:21;92785.72;;;32.16;26.46
10202;BME280;5143;42.584;23.164;2023-07-28T08:11:48;92770.94;;;31.11;25.35
10202;BME280;5143;42.584;23.164;2023-07-28T08:14:15;92793.00;;;31.38;25.99
10202;BME280;5143;42.584;23.164;2023-07-28T08:16:42;92786.75;;;30.49;27.98
10202;BME280;5143;42.584;23.164;2023-07-28T08:19:10;92782.69;;;30.96;27.78
10202;BME280;5143;42.584;23.164;2023-07-28T08:21:37;92773.75;;;30.55;28.21
10202;BME280;5143;42.584;23.164;2023-07-28T08:24:04;92771.44;;;29.98;28.18
10202;BME280;5143;42.584;23.164;2023-07-28T08:26:31;92773.22;;;28.80;29.04
10202;BME280;5143;42.584;23.164;2023-07-28T08:28:58;92781.19;;;29.75;27.30
10202;BME280;5143;42.584;23.164;2023-07-28T08:31:25;92777.09;;;29.67;27.64
10202;BME280;5143;42.584;23.164;2023-07-28T08:33:52;92777.72;;;29.04;28.69
10202;BME280;5143;42.584;23.164;2023-07-28T08:36:20;92764.63;;;29.18;28.14
10202;BME280;5143;42.584;23.164;2023-07-28T08:38:46;92758.25;;;28.18;29.13
10202;BME280;5143;42.584;23.164;2023-07-28T08:41:14;92765.03;;;27.86;30.91
10202;BME280;5143;42.584;23.164;2023-07-28T08:43:41;92759.47;;;27.11;31.05
10202;BME280;5143;42.584;23.164;2023-07-28T08:46:08;92763.84;;;27.05;32.81
10202;BME280;5143;42.584;23.164;2023-07-28T08:48:35;92758.00;;;26.57;31.28
10202;BME280;5143;42.584;23.164;2023-07-28T08:51:02;92754.78;;;26.60;31.54
10202;BME280;5143;42.584;23.164;2023-07-28T08:53:31;92750.22;;;26.55;32.35
10202;BME280;5143;42.584;23.164;2023-07-28T08:55:57;92739.81;;;25.95;33.84
10202;BME280;5143;42.584;23.164;2023-07-28T08:58:24;92737.06;;;26.04;33.28
10202;BME280;5143;42.584;23.164;2023-07-28T09:00:52;92730.47;;;26.09;31.90
10202;BME280;5143;42.584;23.164;2023-07-28T09:03:19;92719.34;;;25.75;33.41
10202;BME280;5143;42.584;23.164;2023-07-28T09:05:47;92727.31;;;25.96;33.82
10202;BME280;5143;42.584;23.164;2023-07-28T09:08:14;92722.53;;;26.32;35.79
10202;BME280;5143;42.584;23.164;2023-07-28T09:10:43;92723.50;;;26.45;34.91
10202;BME280;5143;42.584;23.164;2023-07-28T09:13:10;92726.34;;;26.90;33.86
10202;BME280;5143;42.584;23.164;2023-07-28T09:15:38;92719.00;;;26.32;32.48
10202;BME280;5143;42.584;23.164;2023-07-28T09:18:07;92716.13;;;26.49;33.40
10202;BME280;5143;42.584;23.164;2023-07-28T09:20:36;92711.44;;;26.52;31.77
10202;BME280;5143;42.584;23.164;2023-07-28T09:23:03;92698.63;;;26.05;33.50
10202;BME280;5143;42.584;23.164;2023-07-28T09:25:31;92699.78;;;26.02;33.76
10202;BME280;5143;42.584;23.164;2023-07-28T09:28:00;92695.69;;;26.29;34.04
10202;BME280;5143;42.584;23.164;2023-07-28T09:30:42;92687.22;;;25.93;33.55
10202;BME280;5143;42.584;23.164;2023-07-28T09:33:08;92696.94;;;26.46;34.36
10202;BME280;5143;42.584;23.164;2023-07-28T09:35:47;92694.03;;;26.80;32.52
10202;BME280;5143;42.584;23.164;2023-07-28T09:38:14;92692.16;;;26.56;33.59
10202;BME280;5143;42.584;23.164;2023-07-28T09:40:41;92690.66;;;26.91;33.49
10202;BME280;5143;42.584;23.164;2023-07-28T09:43:09;92687.88;;;26.91;31.92
10202;BME280;5143;42.584;23.164;2023-07-28T09:45:37;92689.00;;;26.78;32.23
10202;BME280;5143;42.584;23.164;2023-07-28T09:48:06;92681.38;;;26.52;33.24
10202;BME280;5143;42.584;23.164;2023-07-28T09:50:36;92684.50;;;26.29;33.30
10202;BME280;5143;42.584;23.164;2023-07-28T09:53:04;92680.59;;;26.42;34.13
10202;BME280;5143;42.584;23.164;2023-07-28T09:55:32;92696.19;;;26.72;33.17
10202;BME280;5143;42.584;23.164;2023-07-28T09:58:04;92685.25;;;27.03;33.47
10202;BME280;5143;42.584;23.164;2023-07-28T10:00:33;92678.59;;;26.98;33.62
10202;BME280;5143;42.584;23.164;2023-07-28T10:03:01;92685.41;;;26.68;32.35
10202;BME280;5143;42.584;23.164;2023-07-28T10:05:29;92684.91;;;26.53;32.40
10202;BME280;5143;42.584;23.164;2023-07-28T10:07:56;92679.00;;;26.85;32.39
10202;BME280;5143;42.584;23.164;2023-07-28T10:10:25;92675.56;;;26.77;32.33
10202;BME280;5143;42.584;23.164;2023-07-28T10:12:53;92676.38;;;26.97;33.29
10202;BME280;5143;42.584;23.164;2023-07-28T10:15:21;92683.63;;;27.09;33.32
10202;BME280;5143;42.584;23.164;2023-07-28T10:17:56;92679.81;;;27.33;33.83
10202;BME280;5143;42.584;23.164;2023-07-28T10:20:35;92683.38;;;27.82;32.89
10202;BME280;5143;42.584;23.164;2023-07-28T10:23:05;92675.72;;;27.73;32.02
10202;BME280;5143;42.584;23.164;2023-07-28T10:25:34;92672.16;;;27.82;32.28
10202;BME280;5143;42.584;23.164;2023-07-28T10:28:02;92665.81;;;27.72;31.42
10202;BME280;5143;42.584;23.164;2023-07-28T10:30:34;92672.75;;;27.90;30.99
10202;BME280;5143;42.584;23.164;2023-07-28T10:33:04;92667.31;;;27.82;30.85
10202;BME280;5143;42.584;23.164;2023-07-28T10:35:31;92656.78;;;27.25;32.42
10202;BME280;5143;42.584;23.164;2023-07-28T10:38:29;92651.06;;;27.42;32.10
10202;BME280;5143;42.584;23.164;2023-07-28T10:41:08;92660.22;;;27.52;32.37
10202;BME280;5143;42.584;23.164;2023-07-28T10:43:35;92651.19;;;27.64;32.79
10202;BME280;5143;42.584;23.164;2023-07-28T10:46:04;92662.13;;;27.50;31.03
10202;BME280;5143;42.584;23.164;2023-07-28T10:48:34;92652.22;;;27.30;31.34
10202;BME280;5143;42.584;23.164;2023-07-28T10:51:01;92651.34;;;27.37;33.21
10202;BME280;5143;42.584;23.164;2023-07-28T10:53:28;92657.88;;;27.68;34.20
10202;BME280;5143;42.584;23.164;2023-07-28T10:55:55;92654.88;;;28.04;33.15
10202;BME280;5143;42.584;23.164;2023-07-28T10:58:21;92646.16;;;27.81;31.57
10202;BME280;5143;42.584;23.164;2023-07-28T11:00:50;92637.06;;;27.42;30.99
10202;BME280;5143;42.584;23.164;2023-07-28T11:03:17;92623.31;;;27.37;32.15
10202;BME280;5143;42.584;23.164;2023-07-28T11:05:48;92624.81;;;27.57;32.85
10202;BME280;5143;42.584;23.164;2023-07-28T11:08:16;92631.44;;;27.62;33.27
10202;BME280;5143;42.584;23.164;2023-07-28T11:10:42;92624.47;;;27.82;33.85
10202;BME280;5143;42.584;23.164;2023-07-28T11:13:10;92624.91;;;27.88;33.33
10202;BME280;5143;42.584;23.164;2023-07-28T11:15:37;92628.88;;;28.04;33.50
10202;BME280;5143;42.584;23.164;2023-07-28T11:18:04;92628.28;;;27.86;33.22
10202;BME280;5143;42.584;23.164;2023-07-28T11:20:32;92626.53;;;27.72;33.42
10202;BME280;5143;42.584;23.164;2023-07-28T11:23:02;92625.66;;;27.79;33.13
10202;BME280;5143;42.584;23.164;2023-07-28T11:25:30;92620.50;;;27.75;33.11
10202;BME280;5143;42.584;23.164;2023-07-28T11:27:58;92609.00;;;27.42;33.26
10202;BME280;5143;42.584;23.164;2023-07-28T11:30:27;92619.19;;;27.57;34.08
10202;BME280;5143;42.584;23.164;2023-07-28T11:32:53;92608.25;;;27.32;33.07
10202;BME280;5143;42.584;23.164;2023-07-28T11:35:21;92603.84;;;27.29;34.24
10202;BME280;5143;42.584;23.164;2023-07-28T11:37:50;92601.47;;;27.45;34.86
10202;BME280;5143;42.584;23.164;2023-07-28T11:40:20;92596.31;;;27.32;34.25
10202;BME280;5143;42.584;23.164;2023-07-28T11:42:48;92601.31;;;27.52;34.81
10202;BME280;5143;42.584;23.164;2023-07-28T11:45:17;92598.97;;;27.49;35.00
10202;BME280;5143;42.584;23.164;2023-07-28T11:47:54;92606.75;;;27.70;33.36
10202;BME280;5143;42.584;23.164;2023-07-28T11:50:26;92601.16;;;27.70;33.44
10202;BME280;5143;42.584;23.164;2023-07-28T11:52:53;92618.41;;;27.76;34.72
10202;BME280;5143;42.584;23.164;2023-07-28T11:55:21;92603.09;;;27.67;35.32
10202;BME280;5143;42.584;23.164;2023-07-28T11:57:49;92612.78;;;27.95;35.40
10202;BME280;5143;42.584;23.164;2023-07-28T12:00:16;92600.81;;;27.94;34.90
10202;BME280;5143;42.584;23.164;2023-07-28T12:02:44;92602.72;;;27.92;33.12
10202;BME280;5143;42.584;23.164;2023-07-28T12:05:12;92596.84;;;27.88;33.54
10202;BME280;5143;42.584;23.164;2023-07-28T12:07:40;92601.09;;;28.08;33.14
10202;BME280;5143;42.584;23.164;2023-07-28T12:10:07;92598.88;;;27.97;33.93
10202;BME280;5143;42.584;23.164;2023-07-28T12:12:46;92582.50;;;27.93;34.06
10202;BME280;5143;42.584;23.164;2023-07-28T12:15:24;92584.66;;;28.14;34.85
10202;BME280;5143;42.584;23.164;2023-07-28T12:18:08;92589.19;;;28.29;33.18
10202;BME280;5143;42.584;23.164;2023-07-28T12:20:39;92582.06;;;28.37;33.47
10202;BME280;5143;42.584;23.164;2023-07-28T12:23:07;92587.69;;;28.37;33.15
10202;BME280;5143;42.584;23.164;2023-07-28T12:25:36;92590.34;;;28.66;31.29
10202;BME280;5143;42.584;23.164;2023-07-28T12:28:05;92585.81;;;28.51;32.16
10202;BME280;5143;42.584;23.164;2023-07-28T12:30:32;92581.00;;;28.42;33.05
10202;BME280;5143;42.584;23.164;2023-07-28T12:32:59;92575.84;;;28.39;32.72
10202;BME280;5143;42.584;23.164;2023-07-28T12:35:26;92577.31;;;28.40;32.47
10202;BME280;5143;42.584;23.164;2023-07-28T12:37:57;92567.09;;;28.44;33.00
10202;BME280;5143;42.584;23.164;2023-07-28T12:40:27;92563.53;;;28.44;33.80
10202;BME280;5143;42.584;23.164;2023-07-28T12:42:55;92563.91;;;28.59;33.75
10202;BME280;5143;42.584;23.164;2023-07-28T12:45:23;92559.91;;;28.62;33.42
10202;BME280;5143;42.584;23.164;2023-07-28T12:47:51;92552.44;;;28.77;33.21
10202;BME280;5143;42.584;23.164;2023-07-28T12:50:18;92548.53;;;28.60;33.16
10202;BME280;5143;42.584;23.164;2023-07-28T12:52:46;92540.69;;;28.90;32.84
10202;BME280;5143;42.584;23.164;2023-07-28T12:55:12;92545.81;;;28.93;33.20
10202;BME280;5143;42.584;23.164;2023-07-28T12:57:40;92551.91;;;28.90;32.55
10202;BME280;5143;42.584;23.164;2023-07-28T13:00:08;92550.13;;;28.73;33.44
10202;BME280;5143;42.584;23.164;2023-07-28T13:02:39;92545.72;;;28.60;31.81